createdAt,value
2017-09-25T00:02:29.004Z,15.63
2017-09-25T00:05:03.860Z,15.57
2017-09-25T00:07:39.215Z,15.57
2017-09-25T00:10:16.405Z,15.64
2017-09-25T00:12:55.313Z,15.63
2017-09-25T00:15:29.953Z,15.56
2017-09-25T00:18:04.932Z,15.53
2017-09-25T00:20:40.348Z,15.61
2017-09-25T00:23:17.950Z,15.73
2017-09-25T00:25:54.461Z,15.77
2017-09-25T00:28:30.247Z,15.78
2017-09-25T00:31:05.350Z,15.67
2017-09-25T00:33:44.650Z,15.70
2017-09-25T00:36:21.525Z,15.62
2017-09-25T00:38:57.064Z,15.57
2017-09-25T00:41:31.716Z,15.57
2017-09-25T00:44:06.243Z,15.53
2017-09-25T00:46:42.628Z,15.45
2017-09-25T00:49:18.116Z,15.39
2017-09-25T00:51:52.399Z,15.31
2017-09-25T00:54:27.299Z,15.40
2017-09-25T00:57:02.143Z,15.45
2017-09-25T00:59:36.272Z,15.37
2017-09-25T01:02:22.344Z,15.44
2017-09-25T01:05:04.758Z,15.49
2017-09-25T01:07:42.914Z,15.51
2017-09-25T01:10:18.400Z,15.53
2017-09-25T01:12:54.257Z,15.55
2017-09-25T01:15:29.086Z,15.54
2017-09-25T01:18:08.152Z,15.50
2017-09-25T01:20:44.316Z,15.56
2017-09-25T01:23:23.949Z,15.56
2017-09-25T01:25:59.668Z,15.62
2017-09-25T01:28:34.391Z,15.65
2017-09-25T01:31:09.416Z,15.70
2017-09-25T01:33:43.875Z,15.70
2017-09-25T01:36:19.675Z,15.69
2017-09-25T01:38:54.483Z,15.69
2017-09-25T01:41:29.314Z,15.66
2017-09-25T01:44:04.263Z,15.74
2017-09-25T01:46:39.307Z,15.74
2017-09-25T01:49:13.923Z,15.74
2017-09-25T01:51:48.631Z,15.71
2017-09-25T01:54:23.246Z,15.70
2017-09-25T01:56:57.964Z,15.70
2017-09-25T01:59:33.308Z,15.62
2017-09-25T02:02:08.668Z,15.58
2017-09-25T02:04:43.419Z,15.59
2017-09-25T02:07:18.228Z,15.58
2017-09-25T02:09:52.963Z,15.51
2017-09-25T02:12:27.412Z,15.45
2017-09-25T02:15:02.333Z,15.36
2017-09-25T02:17:37.091Z,15.36
2017-09-25T02:20:11.663Z,15.30
2017-09-25T02:22:46.396Z,15.21
2017-09-25T02:25:21.206Z,15.20
2017-09-25T02:27:57.079Z,15.17
2017-09-25T02:30:32.004Z,15.17
2017-09-25T02:33:06.963Z,15.18
2017-09-25T02:35:41.896Z,15.21
2017-09-25T02:38:17.125Z,15.21
2017-09-25T02:40:51.605Z,15.17
2017-09-25T02:43:26.789Z,15.17
2017-09-25T02:46:01.445Z,15.27
2017-09-25T02:48:36.340Z,15.22
2017-09-25T02:51:10.684Z,15.19
2017-09-25T02:53:45.816Z,15.13
2017-09-25T02:56:20.544Z,15.17
2017-09-25T02:58:55.096Z,15.17
2017-09-25T03:01:29.906Z,15.11
2017-09-25T03:04:04.551Z,14.98
2017-09-25T03:06:39.371Z,15.02
2017-09-25T03:09:13.966Z,14.87
2017-09-25T03:11:48.974Z,14.91
2017-09-25T03:14:23.820Z,14.86
2017-09-25T03:16:58.468Z,14.76
2017-09-25T03:19:33.476Z,14.84
2017-09-25T03:22:08.248Z,14.82
2017-09-25T03:24:42.878Z,14.74
2017-09-25T03:27:17.813Z,14.87
2017-09-25T03:29:52.806Z,14.86
2017-09-25T03:32:27.702Z,14.88
2017-09-25T03:35:02.511Z,14.87
2017-09-25T03:37:37.392Z,14.79
2017-09-25T03:40:12.228Z,14.68
2017-09-25T03:42:46.663Z,14.76
2017-09-25T03:45:21.660Z,14.81
2017-09-25T03:47:56.531Z,14.86
2017-09-25T03:50:31.554Z,14.69
2017-09-25T03:53:06.391Z,14.55
2017-09-25T03:55:41.199Z,14.62
2017-09-25T03:58:15.973Z,14.56
2017-09-25T04:00:50.965Z,14.55
2017-09-25T04:03:25.556Z,14.54
2017-09-25T04:06:00.221Z,14.55
2017-09-25T04:08:35.268Z,14.60
2017-09-25T04:11:09.934Z,14.75
2017-09-25T04:13:44.672Z,14.80
2017-09-25T04:16:19.465Z,14.68
2017-09-25T04:18:54.104Z,14.59
2017-09-25T04:21:28.886Z,14.63
2017-09-25T04:24:03.607Z,14.67
2017-09-25T04:26:38.264Z,14.76
2017-09-25T04:29:13.145Z,14.86
2017-09-25T04:31:47.448Z,14.90
2017-09-25T04:34:22.358Z,14.84
2017-09-25T04:36:57.093Z,14.73
2017-09-25T04:39:32.840Z,14.78
2017-09-25T04:42:07.536Z,14.87
2017-09-25T04:44:42.355Z,14.97
2017-09-25T04:47:17.192Z,15.03
2017-09-25T04:49:52.828Z,15.08
2017-09-25T04:52:28.048Z,15.13
2017-09-25T04:55:02.661Z,15.13
2017-09-25T04:57:37.378Z,15.19
2017-09-25T05:00:12.247Z,15.22
2017-09-25T05:02:47.118Z,15.22
2017-09-25T05:05:21.837Z,15.20
2017-09-25T05:07:56.505Z,15.14
2017-09-25T05:10:31.252Z,15.07
2017-09-25T05:13:05.944Z,15.04
2017-09-25T05:15:40.738Z,15.02
2017-09-25T05:18:15.803Z,14.98
2017-09-25T05:20:50.479Z,14.97
2017-09-25T05:23:25.272Z,14.98
2017-09-25T05:26:00.158Z,14.99
2017-09-25T05:28:35.008Z,15.02
2017-09-25T05:31:09.667Z,15.01
2017-09-25T05:33:44.652Z,15.02
2017-09-25T05:36:19.023Z,15.10
2017-09-25T05:38:54.026Z,15.18
2017-09-25T05:41:28.755Z,15.17
2017-09-25T05:44:03.516Z,15.18
2017-09-25T05:46:38.336Z,15.13
2017-09-25T05:49:13.095Z,15.14
2017-09-25T05:51:47.795Z,15.17
2017-09-25T05:54:22.618Z,15.18
2017-09-25T05:56:57.271Z,15.20
2017-09-25T05:59:32.912Z,15.22
2017-09-25T06:02:07.616Z,15.31
2017-09-25T06:04:42.272Z,15.26
2017-09-25T06:07:17.116Z,15.25
2017-09-25T06:09:52.586Z,15.26
2017-09-25T06:12:27.163Z,15.24
2017-09-25T06:15:01.788Z,15.27
2017-09-25T06:17:36.841Z,15.26
2017-09-25T06:20:11.412Z,15.18
2017-09-25T06:22:46.212Z,15.13
2017-09-25T06:25:21.019Z,15.19
2017-09-25T06:27:55.731Z,15.10
2017-09-25T06:30:30.553Z,15.10
2017-09-25T06:33:05.251Z,15.06
2017-09-25T06:35:39.946Z,15.13
2017-09-25T06:38:15.513Z,15.19
2017-09-25T06:40:50.310Z,15.23
2017-09-25T06:43:24.968Z,15.25
2017-09-25T06:45:59.692Z,15.25
2017-09-25T06:48:34.690Z,15.28
2017-09-25T06:51:09.431Z,15.32
2017-09-25T06:53:44.152Z,15.31
2017-09-25T06:56:18.900Z,15.35
2017-09-25T06:58:53.757Z,15.36
2017-09-25T07:01:28.360Z,15.34
2017-09-25T07:04:02.831Z,15.36
2017-09-25T07:06:37.546Z,15.43
2017-09-25T07:09:12.715Z,15.51
2017-09-25T07:11:48.680Z,15.50
2017-09-25T07:14:23.324Z,15.54
2017-09-25T07:16:57.938Z,15.56
2017-09-25T07:19:32.680Z,15.61
2017-09-25T07:22:08.511Z,15.67
2017-09-25T07:24:44.159Z,15.69
2017-09-25T07:27:18.913Z,15.74
2017-09-25T07:29:53.744Z,15.77
2017-09-25T07:32:28.481Z,15.74
2017-09-25T07:35:03.404Z,15.73
2017-09-25T07:37:38.243Z,15.76
2017-09-25T07:40:13.011Z,15.71
2017-09-25T07:42:47.655Z,15.74
2017-09-25T07:45:22.213Z,15.76
2017-09-25T07:47:57.143Z,15.73
2017-09-25T07:50:32.099Z,15.75
2017-09-25T07:53:06.819Z,15.68
2017-09-25T07:55:41.622Z,15.66
2017-09-25T07:58:16.251Z,15.63
2017-09-25T08:00:51.012Z,15.69
2017-09-25T08:03:25.730Z,15.72
2017-09-25T08:06:00.458Z,15.66
2017-09-25T08:08:35.192Z,15.70
2017-09-25T08:11:10.351Z,15.69
2017-09-25T08:13:45.105Z,15.60
2017-09-25T08:16:19.850Z,15.54
2017-09-25T08:18:54.846Z,15.52
2017-09-25T08:21:29.684Z,15.47
2017-09-25T08:24:04.740Z,15.61
2017-09-25T08:26:39.797Z,15.66
2017-09-25T08:29:14.767Z,15.77
2017-09-25T08:31:49.683Z,15.85
2017-09-25T08:34:24.772Z,15.82
2017-09-25T08:36:59.244Z,15.80
2017-09-25T08:39:33.951Z,15.76
2017-09-25T08:42:08.776Z,15.78
2017-09-25T08:44:43.631Z,15.88
2017-09-25T08:47:18.384Z,15.96
2017-09-25T08:49:53.216Z,15.99
2017-09-25T08:52:28.215Z,16.10
2017-09-25T08:55:02.972Z,16.08
2017-09-25T08:57:37.796Z,16.02
2017-09-25T09:00:12.432Z,16.16
2017-09-25T09:02:47.171Z,16.15
2017-09-25T09:05:21.913Z,16.18
2017-09-25T09:07:56.633Z,16.25
2017-09-25T09:10:31.389Z,16.19
2017-09-25T09:13:06.136Z,16.24
2017-09-25T09:15:40.724Z,16.33
2017-09-25T09:18:16.560Z,16.27
2017-09-25T09:20:51.184Z,16.23
2017-09-25T09:23:25.976Z,16.24
2017-09-25T09:26:00.732Z,16.16
2017-09-25T09:28:35.388Z,16.24
2017-09-25T09:31:10.186Z,16.22
2017-09-25T09:33:44.952Z,16.24
2017-09-25T09:36:19.627Z,16.25
2017-09-25T09:38:54.352Z,16.30
2017-09-25T09:41:29.202Z,16.30
2017-09-25T09:44:04.026Z,16.37
2017-09-25T09:46:38.974Z,16.42
2017-09-25T09:49:13.814Z,16.45
2017-09-25T09:51:48.501Z,16.41
2017-09-25T09:54:23.471Z,16.45
2017-09-25T09:56:58.216Z,16.49
2017-09-25T09:59:32.918Z,16.54
2017-09-25T10:02:07.655Z,16.51
2017-09-25T10:04:42.688Z,16.61
2017-09-25T10:07:17.472Z,16.76
2017-09-25T10:09:52.115Z,16.78
2017-09-25T10:12:26.754Z,16.65
2017-09-25T10:15:01.496Z,16.70
2017-09-25T10:17:36.236Z,16.68
2017-09-25T10:20:10.955Z,16.57
2017-09-25T10:22:45.668Z,16.72
2017-09-25T10:25:20.440Z,16.76
2017-09-25T10:27:55.318Z,16.73
2017-09-25T10:30:29.628Z,16.90
2017-09-25T10:33:04.945Z,16.98
2017-09-25T10:35:39.356Z,17.06
2017-09-25T10:38:14.393Z,17.23
2017-09-25T10:40:49.112Z,17.39
2017-09-25T10:43:24.044Z,17.40
2017-09-25T10:45:58.834Z,17.43
2017-09-25T10:48:33.687Z,17.56
2017-09-25T10:51:08.432Z,17.59
2017-09-25T10:53:43.164Z,17.48
2017-09-25T10:56:18.318Z,17.55
2017-09-25T10:58:53.037Z,17.64
2017-09-25T11:01:27.755Z,17.57
2017-09-25T11:04:02.600Z,17.70
2017-09-25T11:06:37.415Z,17.82
2017-09-25T11:09:13.128Z,17.69
2017-09-25T11:11:48.057Z,17.80
2017-09-25T11:14:22.830Z,17.99
2017-09-25T11:16:57.763Z,18.11
2017-09-25T11:19:32.673Z,17.94
2017-09-25T11:22:07.420Z,18.00
2017-09-25T11:24:42.944Z,18.03
2017-09-25T11:27:17.781Z,17.96
2017-09-25T11:29:52.812Z,17.85
2017-09-25T11:32:27.584Z,17.90
2017-09-25T11:35:02.744Z,17.96
2017-09-25T11:37:37.467Z,18.08
2017-09-25T11:40:12.288Z,17.99
2017-09-25T11:42:47.218Z,17.98
2017-09-25T11:45:21.810Z,17.89
2017-09-25T11:47:56.503Z,17.90
2017-09-25T11:50:31.351Z,17.93
2017-09-25T11:53:06.250Z,17.98
2017-09-25T11:55:40.995Z,17.92
2017-09-25T11:58:15.821Z,17.92
2017-09-25T12:00:50.542Z,17.90
2017-09-25T12:03:25.280Z,17.99
2017-09-25T12:06:00.606Z,18.02
2017-09-25T12:08:34.978Z,17.98
2017-09-25T12:11:09.840Z,17.97
2017-09-25T12:13:44.940Z,17.94
2017-09-25T12:16:19.943Z,17.94
2017-09-25T12:18:54.904Z,18.00
2017-09-25T12:21:29.612Z,18.01
2017-09-25T12:24:04.372Z,18.08
2017-09-25T12:26:39.244Z,18.09
2017-09-25T12:29:14.165Z,18.17
2017-09-25T12:31:49.075Z,18.24
2017-09-25T12:34:24.064Z,18.25
2017-09-25T12:36:58.812Z,18.34
2017-09-25T12:39:33.568Z,18.35
2017-09-25T12:42:08.387Z,18.36
2017-09-25T12:44:43.075Z,18.36
2017-09-25T12:47:17.939Z,18.38
2017-09-25T12:49:53.758Z,18.32
2017-09-25T12:52:28.580Z,18.38
2017-09-25T12:55:03.512Z,18.45
2017-09-25T12:57:38.316Z,18.50
2017-09-25T13:00:13.972Z,18.42
2017-09-25T13:02:48.735Z,18.51
2017-09-25T13:05:23.804Z,18.56
2017-09-25T13:07:58.576Z,18.64
2017-09-25T13:10:33.531Z,18.42
2017-09-25T13:13:08.484Z,18.64
2017-09-25T13:15:43.516Z,18.90
2017-09-25T13:18:18.320Z,19.14
2017-09-25T13:20:53.109Z,19.27
2017-09-25T13:23:27.847Z,19.39
2017-09-25T13:26:02.828Z,19.49
2017-09-25T13:28:37.327Z,19.54
2017-09-25T13:31:12.239Z,19.33
2017-09-25T13:33:47.988Z,19.39
2017-09-25T13:36:22.324Z,19.37
2017-09-25T13:38:57.459Z,19.15
2017-09-25T13:41:32.304Z,18.85
2017-09-25T13:44:08.700Z,19.07
2017-09-25T13:46:43.136Z,19.26
2017-09-25T13:49:18.426Z,19.65
2017-09-25T13:51:54.048Z,19.82
2017-09-25T13:54:28.911Z,19.89
2017-09-25T13:57:03.782Z,20.00
2017-09-25T14:04:59.904Z,20.63
2017-09-25T14:07:34.894Z,20.56
2017-09-25T14:10:10.146Z,20.58
2017-09-25T14:12:44.876Z,20.36
2017-09-25T14:15:19.740Z,20.17
2017-09-25T14:17:54.547Z,20.12
2017-09-25T14:20:29.484Z,20.04
2017-09-25T14:23:04.370Z,20.01
2017-09-25T14:25:38.803Z,19.98
2017-09-25T14:28:13.912Z,19.95
2017-09-25T14:30:48.617Z,19.67
2017-09-25T14:33:23.461Z,19.76
2017-09-25T14:35:58.163Z,19.89
2017-09-25T14:38:33.780Z,19.94
2017-09-25T14:41:08.472Z,19.86
2017-09-25T14:43:43.132Z,19.54
2017-09-25T14:46:18.379Z,19.45
2017-09-25T14:48:53.292Z,19.24
2017-09-25T14:51:28.147Z,19.06
2017-09-25T14:54:02.911Z,19.04
2017-09-25T14:56:39.311Z,19.06
2017-09-25T14:59:14.445Z,19.08
2017-09-25T15:01:49.803Z,19.11
2017-09-25T15:04:24.741Z,19.07
2017-09-25T15:06:59.311Z,19.08
2017-09-25T15:09:33.848Z,19.04
2017-09-25T15:12:08.642Z,18.99
2017-09-25T15:14:43.392Z,18.96
2017-09-25T15:17:18.551Z,18.80
2017-09-25T15:19:53.214Z,18.70
2017-09-25T15:22:28.072Z,18.54
2017-09-25T15:25:02.864Z,18.45
2017-09-25T15:27:37.397Z,18.41
2017-09-25T15:33:22.757Z,18.89
2017-09-25T15:35:57.196Z,18.96
2017-09-25T15:38:31.930Z,19.00
2017-09-25T15:41:06.548Z,18.95
2017-09-25T15:43:41.348Z,19.04
2017-09-25T15:46:16.009Z,18.99
2017-09-25T15:48:50.672Z,18.98
2017-09-25T15:51:25.313Z,18.86
2017-09-25T15:54:00.203Z,18.81
2017-09-25T15:56:35.037Z,18.84
2017-09-25T15:59:10.070Z,18.81
2017-09-25T16:01:45.228Z,18.90
2017-09-25T16:04:20.237Z,19.00
2017-09-25T16:06:54.874Z,19.06
2017-09-25T16:09:29.647Z,19.10
2017-09-25T16:12:04.532Z,19.02
2017-09-25T16:14:39.244Z,18.95
2017-09-25T16:17:14.187Z,18.92
2017-09-25T16:19:48.959Z,18.88
2017-09-25T16:22:23.617Z,18.82
2017-09-25T16:24:58.550Z,18.74
2017-09-25T16:27:33.971Z,18.71
2017-09-25T16:30:08.727Z,18.68
2017-09-25T16:32:43.570Z,18.71
2017-09-25T16:35:18.287Z,18.81
2017-09-25T16:37:52.998Z,18.93
2017-09-25T16:40:27.647Z,19.00
2017-09-25T16:43:02.731Z,18.99
2017-09-25T16:45:37.947Z,18.81
2017-09-25T16:48:12.700Z,18.66
2017-09-25T16:50:48.776Z,18.57
2017-09-25T16:53:23.947Z,18.47
2017-09-25T16:55:58.702Z,18.37
2017-09-25T16:58:33.556Z,18.32
2017-09-25T17:01:09.315Z,18.32
2017-09-25T17:03:43.768Z,18.27
2017-09-25T17:06:21.192Z,18.23
2017-09-25T17:08:56.076Z,18.26
2017-09-25T17:11:30.652Z,18.30
2017-09-25T17:14:05.278Z,18.58
2017-09-25T17:19:37.520Z,18.51
2017-09-25T17:22:12.250Z,18.44
2017-09-25T17:24:46.866Z,18.39
2017-09-25T17:27:21.600Z,18.33
2017-09-25T17:29:56.596Z,18.33
2017-09-25T17:32:31.331Z,18.28
2017-09-25T17:35:06.044Z,18.26
2017-09-25T17:37:40.843Z,18.33
2017-09-25T17:40:15.725Z,18.57
2017-09-25T17:42:50.681Z,19.03
2017-09-25T17:45:24.986Z,19.36
2017-09-25T17:47:59.888Z,19.65
2017-09-25T17:50:34.616Z,19.62
2017-09-25T17:53:09.368Z,19.60
2017-09-25T17:55:44.111Z,19.51
2017-09-25T17:58:18.931Z,19.49
2017-09-25T18:03:51.281Z,19.27
2017-09-25T18:06:26.143Z,19.29
2017-09-25T18:09:01.983Z,19.02
2017-09-25T18:11:36.521Z,18.64
2017-09-25T18:14:11.322Z,18.36
2017-09-25T18:16:46.075Z,18.11
2017-09-25T18:19:21.167Z,18.05
2017-09-25T18:21:57.158Z,18.01
2017-09-25T18:24:32.308Z,17.94
2017-09-25T18:27:06.957Z,17.83
2017-09-25T18:29:42.599Z,17.77
2017-09-25T18:32:17.181Z,17.92
2017-09-25T18:34:52.774Z,18.64
2017-09-25T18:37:27.493Z,19.08
2017-09-25T18:40:02.696Z,19.35
2017-09-25T18:42:37.414Z,19.56
2017-09-25T18:45:12.055Z,19.72
2017-09-25T18:47:47.640Z,19.80
2017-09-25T18:50:22.334Z,19.84
2017-09-25T18:52:56.683Z,20.01
2017-09-25T18:55:31.679Z,19.91
2017-09-25T18:58:06.501Z,19.68
2017-09-25T19:00:41.505Z,19.45
2017-09-25T19:03:17.623Z,19.37
2017-09-25T19:05:52.505Z,19.49
2017-09-25T19:08:27.067Z,19.61
2017-09-25T19:11:02.068Z,19.61
2017-09-25T19:13:36.586Z,19.45
2017-09-25T19:16:11.218Z,19.19
2017-09-25T19:18:46.034Z,18.93
2017-09-25T19:21:21.054Z,18.73
2017-09-25T19:23:55.598Z,18.59
2017-09-25T19:26:30.357Z,18.51
2017-09-25T19:29:05.177Z,18.43
2017-09-25T19:31:40.249Z,18.34
2017-09-25T19:34:15.241Z,18.26
2017-09-25T19:36:50.865Z,18.11
2017-09-25T19:39:25.387Z,18.03
2017-09-25T19:42:00.254Z,17.95
2017-09-25T19:44:34.830Z,17.88
2017-09-25T19:47:09.214Z,17.79
2017-09-25T19:49:49.500Z,17.72
2017-09-25T19:52:24.545Z,17.68
2017-09-25T19:54:59.765Z,17.62
2017-09-25T19:57:44.907Z,17.52
2017-09-25T20:00:20.152Z,17.40
2017-09-25T20:02:54.754Z,17.31
2017-09-25T20:05:29.684Z,17.38
2017-09-25T20:08:04.537Z,17.94
2017-09-25T20:10:39.573Z,18.38
2017-09-25T20:13:14.049Z,18.66
2017-09-25T20:15:54.369Z,18.73
2017-09-25T20:18:28.746Z,18.58
2017-09-25T20:21:03.612Z,18.27
2017-09-25T20:23:38.724Z,17.96
2017-09-25T20:26:13.577Z,17.66
2017-09-25T20:28:48.509Z,17.46
2017-09-25T20:31:23.109Z,17.32
2017-09-25T20:33:58.189Z,17.23
2017-09-25T20:36:32.469Z,17.17
2017-09-25T20:39:07.622Z,17.08
2017-09-25T20:41:44.775Z,17.00
2017-09-25T20:44:19.463Z,16.91
2017-09-25T20:46:54.588Z,16.85
2017-09-25T20:49:29.687Z,16.82
2017-09-25T20:52:04.589Z,16.83
2017-09-25T20:54:39.578Z,16.89
2017-09-25T20:57:14.459Z,17.28
2017-09-25T20:59:49.233Z,17.82
2017-09-25T21:02:23.948Z,18.19
2017-09-25T21:04:58.917Z,17.87
2017-09-25T21:07:33.622Z,17.35
2017-09-25T21:10:08.658Z,16.89
2017-09-25T21:12:43.359Z,16.57
2017-09-25T21:15:17.736Z,16.38
2017-09-25T21:17:53.020Z,16.22
2017-09-25T21:20:27.849Z,16.06
2017-09-25T21:23:02.421Z,15.94
2017-09-25T21:25:37.039Z,15.83
2017-09-25T21:28:11.922Z,15.72
2017-09-25T21:30:46.932Z,15.86
2017-09-25T21:33:21.515Z,16.66
2017-09-25T21:35:56.848Z,17.21
2017-09-25T21:38:31.563Z,17.11
2017-09-25T21:41:07.010Z,16.85
2017-09-25T21:43:41.971Z,16.62
2017-09-25T21:46:16.785Z,16.34
2017-09-25T21:48:51.788Z,16.00
2017-09-25T21:51:26.617Z,15.81
2017-09-25T21:54:01.540Z,15.52
2017-09-25T21:56:36.379Z,15.41
2017-09-25T21:59:11.152Z,15.33
2017-09-25T22:01:46.013Z,15.30
2017-09-25T22:04:20.889Z,15.19
2017-09-25T22:06:56.125Z,15.12
2017-09-25T22:09:30.479Z,14.98
2017-09-25T22:12:05.213Z,14.98
2017-09-25T22:14:39.853Z,14.95
2017-09-25T22:17:14.572Z,14.89
2017-09-25T22:19:49.370Z,14.83
2017-09-25T22:22:24.109Z,14.76
2017-09-25T22:24:58.936Z,14.69
2017-09-25T22:27:33.669Z,14.66
2017-09-25T22:30:08.263Z,14.67
2017-09-25T22:32:43.192Z,14.64
2017-09-25T22:35:17.693Z,14.59
2017-09-25T22:37:52.383Z,14.57
2017-09-25T22:40:27.657Z,14.47
2017-09-25T22:43:02.733Z,14.38
2017-09-25T22:45:37.944Z,14.45
2017-09-25T22:48:13.149Z,14.47
2017-09-25T22:50:47.586Z,14.51
2017-09-25T22:53:22.459Z,14.51
2017-09-25T22:55:57.517Z,14.46
2017-09-25T22:58:33.393Z,14.47
2017-09-25T23:01:08.113Z,14.39
2017-09-25T23:17:07.148Z,14.35
2017-09-25T23:19:42.045Z,14.39
2017-09-25T23:22:16.687Z,14.39
2017-09-25T23:24:51.245Z,14.40
2017-09-25T23:27:25.939Z,14.42
2017-09-25T23:30:13.097Z,14.40
2017-09-25T23:32:48.280Z,14.39
2017-09-25T23:35:23.221Z,14.42
2017-09-25T23:37:57.915Z,14.48
2017-09-25T23:40:32.868Z,14.49
2017-09-25T23:43:07.569Z,14.60
2017-09-25T23:45:42.320Z,14.70
2017-09-25T23:48:17.951Z,14.73
2017-09-25T23:50:52.617Z,14.77
2017-09-25T23:53:28.274Z,14.79
2017-09-25T23:56:03.188Z,14.81
2017-09-25T23:58:37.825Z,14.76
